Detall de PIREP

Printer-friendly versionPDF version

[2013/03/03 13:30:00]
Flight IATA:CT1004
Pilot Number:026
Company ICAO:CAT
Aircraft Type:DC85/A
PAX:0
Aircraft Registration:CARGO
Departing Airport: LEBL
Destination Airport: LPAZ
Alternate Airport:LPPD
Online: VATSIM
Route:SENIA UZ596 NEXAS UN975 CCS DCT BUSEN DCT KOMUT/N0450F330 3820N BEKUN
Flight Level:F320
No Slew and time accel
No pause
Crash detect
Detect pilot in Cockpit between each 30 and 45 minutes
13:30 Zero fuel Weight: 203756 Lbs, Fuel Weight: 53589 Lbs
13:30 VATSIM:LEBL 031300Z 21008KT CAVOK 13/09 Q1016 NOSIG
13:30 VATSIM:LPAZ 031300Z 27016KT 9999 SCT017 FEW020CB 15/12 Q0986
13:30 VOICE CATALONIAN / MWC 2013 BARCELONA CHARTER
13:30 VOICE CATALONIAN / MWC 2013 BARCELONA CHARTER
13:37 Parking Brakes off
13:45 Take-off
13:45 Take off Weight: 256013 Lbs
13:45 Wind: 202º @ 007 Knots Heading: 198º
13:45 POS N41º 17´ 27´´ E002º 05´ 10´´
13:45 Gear Up: 164 Knots
13:45 Flaps:3 at 164 Knots
13:45 Flaps:2 at 171 Knots
13:46 Flaps:1 at 191 Knots
13:47 Flaps:0 at 227 Knots
13:59 TOC
13:59 Fuel Weight: 47147 Lb
14:00 Wind:194º@010 Knots Heading: 268º Ground Speed: 419 Knots Altitude 32093 ft
14:15 Wind:118º@022 Knots Heading: 252º Ground Speed: 518 Knots Altitude 31994 ft
14:30 Wind:116º@020 Knots Heading: 256º Ground Speed: 519 Knots Altitude 31955 ft
14:45 Wind:112º@037 Knots Heading: 249º Ground Speed: 500 Knots Altitude 31866 ft
15:00 Wind:132º@023 Knots Heading: 243º Ground Speed: 483 Knots Altitude 31791 ft
15:05 Flaps:5 at 298 Knots
15:06 TOD
15:06 Fuel Weight: 30468 Lb
15:07 Flaps:4 at 188 Knots
15:07 Flaps:0 at 187 Knots
15:12 TOC
15:12 Fuel Weight: 28842 Lb
15:15 Wind:139º@033 Knots Heading: 263º Ground Speed: 517 Knots Altitude 32805 ft
15:30 Wind:160º@035 Knots Heading: 255º Ground Speed: 504 Knots Altitude 32762 ft
15:45 Wind:197º@039 Knots Heading: 266º Ground Speed: 488 Knots Altitude 32604 ft
16:00 Wind:242º@069 Knots Heading: 265º Ground Speed: 422 Knots Altitude 32267 ft
16:15 Wind:258º@077 Knots Heading: 268º Ground Speed: 408 Knots Altitude 32106 ft
16:16 TOD
16:16 Fuel Weight: 12836 Lb
16:30 Wind:261º@059 Knots Heading: 241º Ground Speed: 286 Knots Altitude 12864 ft
16:45 Wind:260º@036 Knots Heading: 240º Ground Speed: 200 Knots Altitude 3497 ft
16:48 Flaps:1 at 178 Knots
16:51 Flaps:2 at 200 Knots
16:54 Gear Down: 160 Knots
16:55 Flaps:3 at 165 Knots
16:55 Flaps:4 at 149 Knots
16:56 Flaps:5 at 145 Knots
16:56 TouchDown:Rate -125 ft/min Speed: 126 Knots
16:57 VATSIM:LPAZ 031630Z 27023KT 9999 FEW017 SCT020CB 16/12 Q0984
16:57 Land
16:57 Wind:282º@023 Knots
16:57 Heading: 170º
16:57 Flight Duration: 03:12
16:57 Landing Weight: 211134 Lbs
16:57 POS N36º 58´ 17´´ W025º 10´ 14´´
17:02 Parking brakes on
17:02 Block to Block Duration: 03:25
17:02 Final Fuel: 6911 Lbls
17:02 Spent Fuel: 46677 Lbls
17:02 Flight Length: 1250 NM
17:02 TOD Land Length: 191 NM

Exportar CSV

Powered by Drupal - Modified by Danger4k